Time;durP1;ratioP1;P1;durP2;ratioP2;P2;SDS_P1;SDS_P2;PMS_P1;PMS_P2;Temp;Humidity;BMP_temperature;BMP_pressure;BME280_temperature;BME280_humidity;BME280_pressure;Samples;Min_cycle;Max_cycle;Signal;HPM_P1;HPM_P2
2024/03/15 00:00:00;;;;;;;;;;;;;;;5.44;100.00;99106.66;4975109;28;19926;-90
2024/03/15 00:02:26;;;;;;;;;;;;;;;5.46;100.00;99107.47;4993997;28;19925;-89
2024/03/15 00:04:52;;;;;;;;;;;;;;;5.42;100.00;99116.34;4993350;28;19961;-90
2024/03/15 00:07:25;;;;;;;;;;;;;;;5.42;100.00;99113.72;4993962;28;20313;-91
2024/03/15 00:09:50;;;;;;;;;;;;;;;5.50;100.00;99113.50;4992306;28;20028;-82
2024/03/15 00:12:16;;;;;;;;;;;;;;;5.52;100.00;99122.16;4976077;28;20438;-87
2024/03/15 00:14:46;;;;;;;;;;;;;;;5.43;100.00;99118.94;4974374;28;20423;-89
2024/03/15 00:17:12;;;;;;;;;;;;;;;5.45;100.00;99121.50;4993744;28;19940;-89
2024/03/15 00:19:56;;;;;;;;;;;;;;;5.50;100.00;99124.84;4972946;28;19922;-91
2024/03/15 00:22:23;;;;;;;;;;;;;;;5.55;100.00;99122.94;4972413;28;19968;-91
2024/03/15 00:24:57;;;;;;;;;;;;;;;5.50;100.00;99124.84;4971918;28;19922;-88
2024/03/15 00:27:27;;;;;;;;;;;;;;;5.52;100.00;99128.31;4973719;28;19933;-91
2024/03/15 00:29:52;;;;;;;;;;;;;;;5.50;100.00;99129.25;4972116;28;19992;-90
2024/03/15 00:32:23;;;;;;;;;;;;;;;5.41;100.00;99126.03;4974079;28;19965;-90
2024/03/15 00:34:48;;;;;;;;;;;;;;;5.42;100.00;99132.97;4972231;28;19925;-87
2024/03/15 00:37:14;;;;;;;;;;;;;;;5.43;100.00;99126.81;4972989;28;20297;-96
2024/03/15 00:39:39;;;;;;;;;;;;;;;5.43;100.00;99125.97;4972399;28;19930;-92
2024/03/15 00:42:04;;;;;;;;;;;;;;;5.50;100.00;99124.00;4973630;28;19930;-90
2024/03/15 00:44:30;;;;;;;;;;;;;;;5.48;100.00;99120.56;4972030;28;20396;-93
2024/03/15 00:46:56;;;;;;;;;;;;;;;5.49;100.00;99128.41;4975102;28;19945;-88
2024/03/15 00:49:21;;;;;;;;;;;;;;;5.51;100.00;99120.47;4973016;28;20294;-87
2024/03/15 00:51:49;;;;;;;;;;;;;;;5.50;100.00;99130.09;4973421;28;20285;-90
2024/03/15 00:54:17;;;;;;;;;;;;;;;5.48;100.00;99120.56;4973484;28;19922;-90
2024/03/15 00:56:42;;;;;;;;;;;;;;;5.49;100.00;99122.28;4972380;28;19922;-90
2024/03/15 00:59:08;;;;;;;;;;;;;;;5.41;100.00;99119.91;4971306;28;19925;-89
2024/03/15 01:01:33;;;;;;;;;;;;;;;5.43;100.00;99113.69;4972098;28;19922;-89
2024/03/15 01:03:59;;;;;;;;;;;;;;;5.42;100.00;99111.09;4973572;28;19925;-90
2024/03/15 01:06:24;;;;;;;;;;;;;;;5.42;100.00;99116.34;4972210;28;19926;-89
2024/03/15 01:08:51;;;;;;;;;;;;;;;5.39;100.00;99106.81;4980069;28;19969;-90
2024/03/15 01:11:16;;;;;;;;;;;;;;;5.38;100.00;99110.34;4972010;28;20024;-89
2024/03/15 01:13:42;;;;;;;;;;;;;;;5.51;100.00;99110.81;4970541;28;20037;-90
2024/03/15 01:16:09;;;;;;;;;;;;;;;5.49;100.00;99107.38;4972360;28;19919;-92
2024/03/15 01:18:34;;;;;;;;;;;;;;;5.39;100.00;99106.81;4971159;28;20050;-89
2024/03/15 01:20:59;;;;;;;;;;;;;;;5.46;100.00;99110.09;4972950;28;19928;-90
2024/03/15 01:23:24;;;;;;;;;;;;;;;5.50;100.00;99108.22;4973382;28;20014;-91
2024/03/15 01:25:50;;;;;;;;;;;;;;;5.45;100.00;99103.13;4973283;28;19926;-89
2024/03/15 01:28:16;;;;;;;;;;;;;;;5.48;100.00;99103.03;4970820;28;19969;-90
2024/03/15 01:30:45;;;;;;;;;;;;;;;5.46;100.00;99099.59;4971760;28;19922;-89
2024/03/15 01:33:10;;;;;;;;;;;;;;;5.39;100.00;99092.81;4972870;28;20377;-89
2024/03/15 06:16:26;;;;;;;;;;;;;;;5.26;100.00;99182.53;4994676;28;19956;-82
2024/03/15 06:18:51;;;;;;;;;;;;;;;5.22;100.00;99185.31;4995756;28;20504;-82
2024/03/15 06:21:16;;;;;;;;;;;;;;;5.19;100.00;99191.50;4996311;28;19921;-82
2024/03/15 06:23:42;;;;;;;;;;;;;;;5.21;100.00;99196.72;4995712;28;19918;-82
2024/03/15 06:26:08;;;;;;;;;;;;;;;5.16;100.00;99199.47;4995983;28;20019;-81
2024/03/15 06:28:34;;;;;;;;;;;;;;;5.16;100.00;99196.84;4994636;28;19968;-81
2024/03/15 06:30:59;;;;;;;;;;;;;;;5.18;100.00;99200.28;4995896;28;19969;-81
2024/03/15 06:33:31;;;;;;;;;;;;;;;5.19;100.00;99196.75;4962224;28;20023;-81
2024/03/15 06:36:00;;;;;;;;;;;;;;;5.07;100.00;99200.63;4978250;28;20404;-81
2024/03/15 06:38:40;;;;;;;;;;;;;;;5.12;100.00;99202.22;4978997;28;20328;-81
2024/03/15 06:41:51;;;;;;;;;;;;;;;5.08;100.00;99204.94;4995535;28;19981;-81
2024/03/15 06:44:19;;;;;;;;;;;;;;;5.13;100.00;99210.06;4984532;28;19983;-83
2024/03/15 06:49:43;;;;;;;;;;;;;;;5.14;100.00;99210.91;4995575;28;19920;-82
2024/03/15 06:54:55;;;;;;;;;;;;;;;5.23;100.00;99208.03;4995302;28;20326;-82
2024/03/15 06:57:20;;;;;;;;;;;;;;;5.25;100.00;99212.34;4994169;28;19922;-81
2024/03/15 06:59:45;;;;;;;;;;;;;;;5.17;100.00;99216.97;4994705;28;20353;-81
2024/03/15 07:02:11;;;;;;;;;;;;;;;5.21;100.00;99222.97;4994955;28;20381;-81
2024/03/15 07:04:36;;;;;;;;;;;;;;;5.20;100.00;99222.13;4995186;28;19913;-81
2024/03/15 07:07:01;;;;;;;;;;;;;;;5.23;100.00;99227.28;4995235;28;20059;-81
2024/03/15 07:09:27;;;;;;;;;;;;;;;5.18;100.00;99223.91;4995233;28;19930;-80
2024/03/15 07:11:53;;;;;;;;;;;;;;;5.22;100.00;99230.81;4993664;28;20577;-81
2024/03/15 07:14:18;;;;;;;;;;;;;;;5.21;100.00;99230.84;4977534;28;19918;-82
2024/03/15 07:16:43;;;;;;;;;;;;;;;5.24;100.00;99234.25;4977504;28;20077;-81
2024/03/15 07:19:08;;;;;;;;;;;;;;;5.26;100.00;99231.56;4994885;28;20419;-81
2024/03/15 07:21:34;;;;;;;;;;;;;;;5.27;100.00;99234.16;4994551;28;20257;-81
2024/03/15 07:23:59;;;;;;;;;;;;;;;5.21;100.00;99234.34;4994754;28;20332;-81
2024/03/15 07:26:24;;;;;;;;;;;;;;;5.23;100.00;99226.41;4994858;28;19918;-81
2024/03/15 07:28:50;;;;;;;;;;;;;;;5.27;100.00;99230.69;4993217;28;20276;-81
2024/03/15 07:31:16;;;;;;;;;;;;;;;5.27;100.00;99231.53;4977077;28;19981;-81
2024/03/15 07:33:41;;;;;;;;;;;;;;;5.34;100.00;99233.97;4993545;28;20349;-81
2024/03/15 07:36:07;;;;;;;;;;;;;;;5.31;100.00;99239.31;4994238;28;19924;-81
2024/03/15 07:38:33;;;;;;;;;;;;;;;5.31;100.00;99239.31;4977013;28;19925;-82
2024/03/15 07:40:58;;;;;;;;;;;;;;;5.34;100.00;99239.22;4993017;28;19917;-83
2024/03/15 07:43:24;;;;;;;;;;;;;;;5.37;100.00;99242.63;4993180;28;20377;-82
2024/03/15 07:45:49;;;;;;;;;;;;;;;5.35;100.00;99238.34;4994361;28;19973;-81
2024/03/15 07:48:14;;;;;;;;;;;;;;;5.33;100.00;99242.75;4994595;28;19926;-82
2024/03/15 07:50:41;;;;;;;;;;;;;;;5.37;100.00;99237.38;4994276;28;20051;-82
2024/03/15 07:53:06;;;;;;;;;;;;;;;5.36;100.00;99237.41;4994249;28;19928;-82
2024/03/15 07:55:32;;;;;;;;;;;;;;;5.35;100.00;99238.34;4994286;28;19918;-84
2024/03/15 07:57:57;;;;;;;;;;;;;;;5.37;100.00;99234.72;4975333;28;20266;-82
2024/03/15 08:00:23;;;;;;;;;;;;;;;5.42;100.00;99243.34;4994256;28;20092;-81
2024/03/15 08:02:48;;;;;;;;;;;;;;;5.44;100.00;99248.53;4994028;28;20004;-83
2024/03/15 08:05:15;;;;;;;;;;;;;;;5.51;100.00;99246.63;4976908;28;19918;-86
2024/03/15 08:07:41;;;;;;;;;;;;;;;5.42;100.00;99242.47;4994154;28;19933;-82
2024/03/15 08:10:10;;;;;;;;;;;;;;;5.45;100.00;99243.25;4994038;28;20545;-82
2024/03/15 08:12:35;;;;;;;;;;;;;;;5.42;100.00;99242.47;4991988;28;19925;-81
2024/03/15 08:15:02;;;;;;;;;;;;;;;5.44;100.00;99238.03;4993554;28;19926;-82
2024/03/15 08:17:28;;;;;;;;;;;;;;;5.45;100.00;99242.38;4993906;28;19968;-80
2024/03/15 08:19:54;;;;;;;;;;;;;;;5.46;100.00;99241.50;4992327;28;20289;-81
2024/03/15 08:22:20;;;;;;;;;;;;;;;5.49;100.00;99245.78;4993849;28;19936;-81
2024/03/15 08:24:45;;;;;;;;;;;;;;;5.50;100.00;99248.34;4993769;28;19918;-82
2024/03/15 08:27:11;;;;;;;;;;;;;;;5.45;100.00;99245.00;4992358;28;19922;-82
2024/03/15 08:29:36;;;;;;;;;;;;;;;5.44;100.00;99249.41;4976287;28;20451;-83
2024/03/15 08:48:04;;;;;;;;;;;;;;;5.48;100.00;99263.31;4965371;28;19989;-86
2024/03/15 08:50:33;;;;;;;;;;;;;;;5.50;100.00;99261.50;4956517;28;19926;-81
2024/03/15 08:52:59;;;;;;;;;;;;;;;5.54;100.00;99268.41;4973111;28;19925;-81
2024/03/15 08:55:24;;;;;;;;;;;;;;;5.54;100.00;99268.41;4973793;28;19942;-83
2024/03/15 08:57:50;;;;;;;;;;;;;;;5.49;100.00;99264.16;4956186;28;19922;-81
2024/03/15 09:00:16;;;;;;;;;;;;;;;5.54;100.00;99267.53;4972019;28;19965;-81
2024/03/15 09:02:41;;;;;;;;;;;;;;;5.56;100.00;99273.59;4973720;28;19950;-81
2024/03/15 09:05:09;;;;;;;;;;;;;;;5.53;100.00;99265.81;4955889;28;19977;-81
2024/03/15 09:07:38;;;;;;;;;;;;;;;5.60;100.00;99273.47;4973664;28;20326;-83
2024/03/15 09:10:16;;;;;;;;;;;;;;;5.66;100.00;99271.56;4973853;28;20330;-82
2024/03/15 09:12:41;;;;;;;;;;;;;;;5.64;100.00;99277.69;4972976;28;19926;-82
2024/03/15 09:15:12;;;;;;;;;;;;;;;5.61;100.00;99284.84;4972099;28;20362;-82
2024/03/15 09:17:41;;;;;;;;;;;;;;;5.63;100.00;99276.00;4973629;28;19918;-82
2024/03/15 09:20:27;;;;;;;;;;;;;;;5.69;100.00;99280.19;4973313;28;20285;-81
2024/03/15 09:22:52;;;;;;;;;;;;;;;5.66;100.00;99276.81;4973275;28;19922;-83
2024/03/15 09:25:26;;;;;;;;;;;;;;;5.62;100.00;99290.03;4973445;28;19922;-83
2024/03/15 09:27:55;;;;;;;;;;;;;;;5.62;100.00;99286.56;4973353;28;19929;-84
2024/03/15 09:30:26;;;;;;;;;;;;;;;5.61;100.00;99284.84;4972111;28;19925;-82
2024/03/15 09:32:52;;;;;;;;;;;;;;;5.62;100.00;99287.41;4955588;28;19922;-85
2024/03/15 09:35:17;;;;;;;;;;;;;;;5.66;100.00;99277.66;4973177;28;20348;-86
2024/03/15 09:37:51;;;;;;;;;;;;;;;5.66;100.00;99289.94;4973117;28;19922;-84
2024/03/15 09:40:18;;;;;;;;;;;;;;;5.61;100.00;99290.94;4955450;28;19922;-91
2024/03/15 09:42:44;;;;;;;;;;;;;;;5.60;100.00;99289.25;4973198;28;19964;-84
2024/03/15 09:45:11;;;;;;;;;;;;;;;5.63;100.00;99291.78;4971780;28;19925;-86
2024/03/15 09:47:37;;;;;;;;;;;;;;;5.68;100.00;99296.91;4961468;28;20024;-82
2024/03/15 09:50:03;;;;;;;;;;;;;;;5.64;100.00;99298.72;4992448;28;19956;-83
2024/03/15 09:52:29;;;;;;;;;;;;;;;5.57;100.00;99294.59;4992462;28;19918;-83
2024/03/15 09:54:56;;;;;;;;;;;;;;;5.55;100.00;99301.66;4982720;28;19929;-82
2024/03/15 09:57:21;;;;;;;;;;;;;;;5.60;100.00;99306.75;4992407;28;19926;-83
2024/03/15 09:59:47;;;;;;;;;;;;;;;5.67;100.00;99304.81;4990993;28;20387;-82
2024/03/15 10:02:22;;;;;;;;;;;;;;;5.66;100.00;99306.56;4991407;28;19929;-83
2024/03/15 10:04:49;;;;;;;;;;;;;;;5.66;100.00;99309.19;4992122;28;20393;-81
2024/03/15 10:07:14;;;;;;;;;;;;;;;5.68;100.00;99301.28;4992255;28;20301;-82
2024/03/15 10:09:40;;;;;;;;;;;;;;;5.74;100.00;99306.34;4992402;28;19925;-82
2024/03/15 10:12:09;;;;;;;;;;;;;;;5.72;100.00;99302.91;4992285;28;20501;-83
2024/03/15 10:14:34;;;;;;;;;;;;;;;5.65;100.00;99307.50;4990923;28;20020;-83
2024/03/15 10:16:59;;;;;;;;;;;;;;;5.71;100.00;99302.06;4991782;28;20354;-84
2024/03/15 10:19:25;;;;;;;;;;;;;;;5.75;100.00;99308.94;4992215;28;19928;-81
2024/03/15 10:21:51;;;;;;;;;;;;;;;5.80;100.00;99311.41;4992183;28;19924;-84
2024/03/15 10:24:16;;;;;;;;;;;;;;;5.70;100.00;99305.59;4982445;28;19924;-87
2024/03/15 10:26:41;;;;;;;;;;;;;;;5.70;100.00;99320.50;4992270;28;19924;-80
2024/03/15 10:29:09;;;;;;;;;;;;;;;5.66;100.00;99313.59;4992134;28;20288;-83
2024/03/15 10:31:34;;;;;;;;;;;;;;;5.71;100.00;99323.09;4990070;28;19913;-81
2024/03/15 10:34:00;;;;;;;;;;;;;;;5.75;100.00;99315.97;4992029;28;19922;-81
2024/03/15 10:36:25;;;;;;;;;;;;;;;5.71;100.00;99327.47;4995096;28;19920;-82
2024/03/15 10:38:52;;;;;;;;;;;;;;;5.69;100.00;99321.41;4995661;28;19922;-81
2024/03/15 10:41:17;;;;;;;;;;;;;;;5.71;100.00;99322.22;4995664;28;19945;-82
2024/03/15 10:43:42;;;;;;;;;;;;;;;5.70;100.00;99321.34;4986112;28;20284;-82
2024/03/15 10:46:11;;;;;;;;;;;;;;;5.63;100.00;99322.44;4994183;28;19925;-82
2024/03/15 10:48:36;;;;;;;;;;;;;;;5.69;100.00;99329.28;4990720;28;19925;-83
2024/03/15 10:51:02;;;;;;;;;;;;;;;5.64;100.00;99324.16;4977965;28;20296;-82
2024/03/15 10:53:29;;;;;;;;;;;;;;;5.68;100.00;99320.56;4995463;28;20036;-82
2024/03/15 10:55:55;;;;;;;;;;;;;;;5.61;100.00;99316.38;4995157;28;19918;-81
2024/03/15 10:58:20;;;;;;;;;;;;;;;5.69;100.00;99318.78;4995171;28;20013;-81
2024/03/15 11:00:46;;;;;;;;;;;;;;;5.69;100.00;99319.63;4993943;28;20012;-81
2024/03/15 11:03:12;;;;;;;;;;;;;;;5.70;100.00;99320.50;4995024;28;20007;-81
2024/03/15 11:05:38;;;;;;;;;;;;;;;5.70;100.00;99325.75;4994426;28;19957;-81
2024/03/15 11:08:06;;;;;;;;;;;;;;;5.68;100.00;99322.28;4993753;28;20444;-81
2024/03/15 11:10:32;;;;;;;;;;;;;;;5.70;100.00;99323.13;4995200;28;20426;-83
2024/03/15 11:12:58;;;;;;;;;;;;;;;5.70;100.00;99324.00;4994325;28;20020;-84
2024/03/15 11:15:24;;;;;;;;;;;;;;;5.68;100.00;99327.56;4975548;28;21260;-84
2024/03/15 11:17:59;;;;;;;;;;;;;;;5.71;100.00;99322.22;4994859;28;19963;-83
2024/03/15 11:20:24;;;;;;;;;;;;;;;5.69;100.00;99331.91;4994966;28;19922;-83
2024/03/15 11:22:56;;;;;;;;;;;;;;;5.72;100.00;99323.94;4995014;28;19922;-82
2024/03/15 11:25:21;;;;;;;;;;;;;;;5.71;100.00;99328.34;4994361;28;19933;-90
2024/03/15 11:27:57;;;;;;;;;;;;;;;5.76;100.00;99322.91;4994605;28;19918;-90
2024/03/15 11:30:24;;;;;;;;;;;;;;;5.70;100.00;99331.03;4975309;28;20304;-81
2024/03/15 11:32:50;;;;;;;;;;;;;;;5.75;100.00;99329.97;4994203;28;20354;-85
2024/03/15 11:35:15;;;;;;;;;;;;;;;5.76;100.00;99322.91;4994546;28;20000;-89
2024/03/15 11:37:40;;;;;;;;;;;;;;;5.82;100.00;99325.38;4994593;28;19968;-82
2024/03/15 11:40:06;;;;;;;;;;;;;;;5.77;100.00;99322.03;4994557;28;19925;-89
2024/03/15 11:42:32;;;;;;;;;;;;;;;5.85;100.00;99317.38;4994641;28;20281;-89
2024/03/15 11:44:57;;;;;;;;;;;;;;;5.90;100.00;99322.50;4993173;28;19936;-89
2024/03/15 11:47:24;;;;;;;;;;;;;;;5.82;100.00;99318.38;4975699;28;20339;-84
2024/03/15 11:49:55;;;;;;;;;;;;;;;5.87;100.00;99327.84;4994398;28;19922;-89
2024/03/15 11:52:21;;;;;;;;;;;;;;;5.85;100.00;99327.06;4976119;28;19925;-81
2024/03/15 11:54:51;;;;;;;;;;;;;;;5.81;100.00;99318.41;4994198;28;19918;-83
2024/03/15 11:57:16;;;;;;;;;;;;;;;5.80;100.00;99320.16;4994113;28;19922;-83
2024/03/15 11:59:41;;;;;;;;;;;;;;;5.82;100.00;99321.00;4992950;28;20293;-82
2024/03/15 12:02:19;;;;;;;;;;;;;;;5.85;100.00;99320.00;4994279;28;19918;-91
2024/03/15 12:04:45;;;;;;;;;;;;;;;5.85;100.00;99320.00;4976188;28;19945;-80
2024/03/15 12:07:10;;;;;;;;;;;;;;;5.77;100.00;99322.03;4994063;28;20361;-82
2024/03/15 12:09:42;;;;;;;;;;;;;;;5.81;100.00;99326.28;4994179;28;20476;-82
2024/03/15 12:12:07;;;;;;;;;;;;;;;5.80;100.00;99321.94;4993670;28;19928;-82
2024/03/15 12:14:32;;;;;;;;;;;;;;;5.81;100.00;99319.25;4993837;28;20004;-81
2024/03/15 12:16:57;;;;;;;;;;;;;;;5.84;100.00;99318.31;4993239;28;19918;-83
2024/03/15 12:19:23;;;;;;;;;;;;;;;5.85;100.00;99320.00;4993940;28;19918;-82
2024/03/15 12:21:48;;;;;;;;;;;;;;;5.88;100.00;99321.69;4993980;28;19925;-88
2024/03/15 12:24:13;;;;;;;;;;;;;;;5.83;100.00;99313.94;4994364;28;19924;-89
2024/03/15 12:26:39;;;;;;;;;;;;;;;5.83;100.00;99313.94;4993937;28;19969;-91
2024/03/15 12:29:04;;;;;;;;;;;;;;;5.78;100.00;99313.25;4995568;28;19929;-94
2024/03/15 12:31:29;;;;;;;;;;;;;;;5.77;100.00;99317.63;4994534;28;19969;-94
2024/03/15 12:33:55;;;;;;;;;;;;;;;5.84;100.00;99313.06;4994945;28;19921;-94
2024/03/15 12:36:20;;;;;;;;;;;;;;;5.84;100.00;99305.16;4976112;28;20121;-91
2024/03/15 12:38:46;;;;;;;;;;;;;;;5.85;100.00;99320.00;4993663;28;19929;-89
2024/03/15 12:41:11;;;;;;;;;;;;;;;5.87;100.00;99312.97;4976264;28;19922;-85
2024/03/15 12:43:37;;;;;;;;;;;;;;;5.82;100.00;99312.22;4975940;28;19941;-84
2024/03/15 12:46:08;;;;;;;;;;;;;;;5.96;100.00;99312.69;4993576;28;19928;-81
2024/03/15 12:48:34;;;;;;;;;;;;;;;5.86;100.00;99302.50;4993435;28;20016;-86
2024/03/15 12:51:01;;;;;;;;;;;;;;;5.91;100.00;99304.06;4975818;28;20016;-88
2024/03/15 12:53:26;;;;;;;;;;;;;;;5.90;100.00;99296.22;4992501;28;20324;-85
2024/03/15 12:55:51;;;;;;;;;;;;;;;5.91;100.00;99309.31;4993265;28;19967;-90
2024/03/15 12:58:16;;;;;;;;;;;;;;;5.90;100.00;99294.44;4975272;28;20036;-85
2024/03/15 13:00:42;;;;;;;;;;;;;;;5.95;100.00;99297.81;4991950;28;19961;-84
2024/03/15 13:03:10;;;;;;;;;;;;;;;5.93;100.00;99294.34;4993557;28;19921;-89
2024/03/15 13:05:35;;;;;;;;;;;;;;;5.94;100.00;99290.81;4980594;28;19924;-85
2024/03/15 13:08:00;;;;;;;;;;;;;;;5.98;100.00;99291.59;4993560;28;19926;-87
2024/03/15 13:10:26;;;;;;;;;;;;;;;5.93;100.00;99289.06;4994557;28;19918;-86
2024/03/15 13:12:51;;;;;;;;;;;;;;;5.91;100.00;99292.69;4993429;28;20021;-93
2024/03/15 13:15:18;;;;;;;;;;;;;;;5.88;100.00;99293.63;4991096;28;19917;-86
2024/03/15 13:17:44;;;;;;;;;;;;;;;5.93;100.00;99286.44;4992789;28;19917;-86
2024/03/15 13:20:18;;;;;;;;;;;;;;;5.94;100.00;99293.44;4975395;28;19922;-82
2024/03/15 13:22:48;;;;;;;;;;;;;;;6.03;100.00;99286.19;4993586;28;19917;-91
2024/03/15 13:25:15;;;;;;;;;;;;;;;6.00;100.00;99292.44;4992596;28;20420;-82
2024/03/15 13:27:40;;;;;;;;;;;;;;;6.00;100.00;99277.50;4992725;28;19926;-83
2024/03/15 13:30:10;;;;;;;;;;;;;;;6.04;100.00;99275.63;4991373;28;19918;-83
2024/03/15 13:32:38;;;;;;;;;;;;;;;6.03;100.00;99273.91;4992601;28;20008;-83
2024/03/15 13:35:04;;;;;;;;;;;;;;;5.99;100.00;99277.53;4992479;28;19918;-82
2024/03/15 13:37:30;;;;;;;;;;;;;;;6.01;100.00;99273.09;4992761;28;20000;-81
2024/03/15 13:39:55;;;;;;;;;;;;;;;5.98;100.00;99274.06;4992389;28;20257;-84
2024/03/15 13:42:20;;;;;;;;;;;;;;;6.00;100.00;99269.59;4975237;28;19921;-84
2024/03/15 13:44:46;;;;;;;;;;;;;;;5.95;100.00;99284.66;4991151;28;20365;-84
2024/03/15 13:47:11;;;;;;;;;;;;;;;5.97;100.00;99282.84;4992361;28;19936;-83
2024/03/15 13:49:36;;;;;;;;;;;;;;;6.03;100.00;99270.41;4991005;28;19918;-82
2024/03/15 13:52:01;;;;;;;;;;;;;;;6.09;100.00;99280.72;4992500;28;19922;-84
2024/03/15 13:54:28;;;;;;;;;;;;;;;5.98;100.00;99284.59;4992528;28;19943;-84
2024/03/15 13:56:53;;;;;;;;;;;;;;;5.96;100.00;99275.88;4991277;28;19917;-83
2024/03/15 13:59:18;;;;;;;;;;;;;;;6.00;100.00;99277.50;4992379;28;20383;-83
2024/03/15 14:01:45;;;;;;;;;;;;;;;6.03;100.00;99273.91;4991019;28;20555;-81
2024/03/15 14:04:10;;;;;;;;;;;;;;;6.00;100.00;99271.38;4991612;28;20317;-83
2024/03/15 14:06:35;;;;;;;;;;;;;;;5.99;100.00;99260.00;4992354;28;19922;-82
2024/03/15 14:09:02;;;;;;;;;;;;;;;6.02;100.00;99247.66;4992536;28;20273;-81
2024/03/15 14:11:27;;;;;;;;;;;;;;;6.02;100.00;99250.31;4995043;28;20008;-86
2024/03/15 14:13:53;;;;;;;;;;;;;;;5.95;100.00;99250.47;4997571;28;20441;-83
2024/03/15 14:16:21;;;;;;;;;;;;;;;5.96;100.00;99253.94;4994804;28;20373;-82
2024/03/15 14:18:47;;;;;;;;;;;;;;;5.98;100.00;99241.63;4978376;28;19929;-84
2024/03/15 14:21:15;;;;;;;;;;;;;;;6.00;100.00;99235.41;4996191;28;19922;-86
2024/03/15 14:23:41;;;;;;;;;;;;;;;6.00;100.00;99230.16;4995998;28;19921;-83
2024/03/15 14:26:07;;;;;;;;;;;;;;;6.02;100.00;99227.47;4995926;28;19921;-86
2024/03/15 14:28:32;;;;;;;;;;;;;;;6.04;100.00;99224.81;4995114;28;20265;-87
2024/03/15 14:31:00;;;;;;;;;;;;;;;6.04;100.00;99230.91;4994522;28;19917;-84
2024/03/15 14:33:26;;;;;;;;;;;;;;;6.07;100.00;99222.91;4995778;28;20028;-79
2024/03/15 14:35:55;;;;;;;;;;;;;;;6.04;100.00;99222.16;4978385;28;20365;-81
2024/03/15 14:38:20;;;;;;;;;;;;;;;6.00;100.00;99224.91;4995487;28;19940;-82
2024/03/15 14:40:48;;;;;;;;;;;;;;;6.04;100.00;99222.16;4995602;28;20373;-85
2024/03/15 14:43:13;;;;;;;;;;;;;;;6.06;100.00;99220.34;4978171;28;19917;-81
2024/03/15 14:45:38;;;;;;;;;;;;;;;6.07;100.00;99214.19;4994041;28;19950;-82
2024/03/15 14:48:04;;;;;;;;;;;;;;;6.04;100.00;99219.53;4995871;28;19918;-81
2024/03/15 14:50:30;;;;;;;;;;;;;;;6.02;100.00;99218.75;4995280;28;19918;-83
2024/03/15 14:52:56;;;;;;;;;;;;;;;6.02;100.00;99216.09;4995525;28;20309;-80
2024/03/15 14:55:26;;;;;;;;;;;;;;;6.03;100.00;99212.56;4995450;28;19921;-83
2024/03/15 14:57:52;;;;;;;;;;;;;;;6.01;100.00;99220.50;4995373;28;19924;-84
2024/03/15 15:00:21;;;;;;;;;;;;;;;6.07;100.00;99214.19;4993908;28;19922;-84
2024/03/15 15:02:48;;;;;;;;;;;;;;;6.10;100.00;99211.44;4994662;28;19922;-82
2024/03/15 15:05:13;;;;;;;;;;;;;;;6.00;100.00;99206.50;4994908;28;20385;-82
2024/03/15 15:07:38;;;;;;;;;;;;;;;6.09;100.00;99212.34;4995041;28;19929;-84
2024/03/15 15:10:07;;;;;;;;;;;;;;;6.13;100.00;99204.31;4977631;28;19918;-87
2024/03/15 15:12:33;;;;;;;;;;;;;;;6.08;100.00;99206.25;4994821;28;20357;-82
2024/03/15 15:14:58;;;;;;;;;;;;;;;6.10;100.00;99203.56;4993833;28;19977;-82
2024/03/15 15:17:23;;;;;;;;;;;;;;;6.17;100.00;99207.69;4995046;28;19945;-82
2024/03/15 15:19:49;;;;;;;;;;;;;;;6.19;100.00;99203.25;4994750;28;19928;-82
2024/03/15 15:22:16;;;;;;;;;;;;;;;6.13;100.00;99204.31;4993301;28;19964;-83
2024/03/15 15:24:44;;;;;;;;;;;;;;;6.10;100.00;99198.28;4994706;28;20474;-82
2024/03/15 15:27:10;;;;;;;;;;;;;;;6.05;100.00;99201.09;4994901;28;19918;-84
2024/03/15 15:29:35;;;;;;;;;;;;;;;6.05;100.00;99202.81;4993081;28;19924;-82
2024/03/15 15:32:01;;;;;;;;;;;;;;;6.08;100.00;99194.84;4993844;28;19980;-83
2024/03/15 15:34:29;;;;;;;;;;;;;;;6.03;100.00;99202.03;4994671;28;19922;-85
2024/03/15 15:36:54;;;;;;;;;;;;;;;6.13;100.00;99208.72;4994519;28;19922;-84
2024/03/15 15:39:22;;;;;;;;;;;;;;;6.09;100.00;99199.19;4994569;28;19926;-83
2024/03/15 15:41:48;;;;;;;;;;;;;;;6.08;100.00;99195.72;4994530;28;19918;-82
2024/03/15 15:44:13;;;;;;;;;;;;;;;6.11;100.00;99207.88;4994484;28;19971;-82
2024/03/15 15:46:38;;;;;;;;;;;;;;;6.11;100.00;99207.88;4992983;28;19953;-82
2024/03/15 15:49:09;;;;;;;;;;;;;;;6.08;100.00;99211.50;4994214;28;19917;-83
2024/03/15 15:51:35;;;;;;;;;;;;;;;6.11;100.00;99200.88;4976691;28;19928;-82
2024/03/15 15:54:01;;;;;;;;;;;;;;;6.11;100.00;99206.13;4994640;28;19922;-83
2024/03/15 15:56:26;;;;;;;;;;;;;;;6.13;100.00;99211.34;4994113;28;19925;-81
2024/03/15 15:58:54;;;;;;;;;;;;;;;6.17;100.00;99212.94;4976565;28;20027;-82
2024/03/15 16:01:19;;;;;;;;;;;;;;;6.11;100.00;99210.50;4992079;28;19918;-81
2024/03/15 16:03:44;;;;;;;;;;;;;;;6.10;100.00;99208.81;4992514;28;20343;-85
2024/03/15 16:06:09;;;;;;;;;;;;;;;6.15;100.00;99206.88;4976473;28;19918;-82
2024/03/15 16:08:38;;;;;;;;;;;;;;;6.07;100.00;99217.66;4993875;28;19922;-84
2024/03/15 16:11:04;;;;;;;;;;;;;;;6.10;100.00;99214.06;4993906;28;19922;-82
2024/03/15 16:13:29;;;;;;;;;;;;;;;6.07;100.00;99212.41;4993889;28;19924;-83
2024/03/15 16:15:56;;;;;;;;;;;;;;;6.16;100.00;99211.25;4992516;28;20462;-85
2024/03/15 16:18:22;;;;;;;;;;;;;;;6.17;100.00;99210.31;4993212;28;19926;-82
2024/03/15 16:20:47;;;;;;;;;;;;;;;6.19;100.00;99221.66;4993610;28;19964;-83
2024/03/15 16:23:12;;;;;;;;;;;;;;;6.20;100.00;99219.88;4993676;28;19992;-83
2024/03/15 16:25:38;;;;;;;;;;;;;;;8.81;100.00;99218.53;4993577;28;20297;-82
2024/03/15 16:28:04;;;;;;;;;;;;;;;6.88;100.00;99218.38;4993798;28;20324;-86
2024/03/15 16:30:30;;;;;;;;;;;;;;;6.49;100.00;99216.22;4992127;28;20037;-84
2024/03/15 16:32:56;;;;;;;;;;;;;;;6.39;100.00;99228.00;4992702;28;19968;-82
2024/03/15 16:35:22;;;;;;;;;;;;;;;6.33;100.00;99229.94;4992754;28;19947;-87
2024/03/15 16:37:47;;;;;;;;;;;;;;;6.29;100.00;99224.84;4993371;28;19918;-86
2024/03/15 16:40:16;;;;;;;;;;;;;;;6.29;100.00;99225.69;4993607;28;20327;-90
2024/03/15 16:42:42;;;;;;;;;;;;;;;6.29;100.00;99232.72;4992585;28;20416;-82
2024/03/15 16:45:07;;;;;;;;;;;;;;;6.26;100.00;99240.72;4991992;28;19914;-84
2024/03/15 16:47:33;;;;;;;;;;;;;;;6.20;100.00;99236.53;4993410;28;19922;-81
2024/03/15 16:49:58;;;;;;;;;;;;;;;6.21;100.00;99240.00;4975762;28;19918;-85
2024/03/15 16:52:23;;;;;;;;;;;;;;;6.21;100.00;99242.63;4993387;28;19921;-89
2024/03/15 16:54:48;;;;;;;;;;;;;;;6.24;100.00;99238.16;4991733;28;20047;-84
2024/03/15 16:57:14;;;;;;;;;;;;;;;6.24;100.00;99246.03;4991815;28;19922;-83
2024/03/15 16:59:39;;;;;;;;;;;;;;;6.22;100.00;99242.56;4991870;28;20353;-81
2024/03/15 17:02:05;;;;;;;;;;;;;;;6.24;100.00;99248.66;4992706;28;19937;-82
2024/03/15 17:04:30;;;;;;;;;;;;;;;6.21;100.00;99246.13;4975439;28;19914;-85
2024/03/15 17:06:56;;;;;;;;;;;;;;;6.18;100.00;99249.72;4991799;28;19922;-80
2024/03/15 17:09:24;;;;;;;;;;;;;;;6.15;100.00;99248.97;4993009;28;19918;-80
2024/03/15 17:11:49;;;;;;;;;;;;;;;6.24;100.00;99253.94;4992709;28;19921;-82
2024/03/15 17:14:14;;;;;;;;;;;;;;;6.20;100.00;99256.72;4992808;28;19924;-80
2024/03/15 17:16:39;;;;;;;;;;;;;;;6.19;100.00;99261.13;4990122;28;19920;-84
2024/03/15 17:19:05;;;;;;;;;;;;;;;6.17;100.00;99260.28;4992826;28;19964;-82
2024/03/15 17:21:30;;;;;;;;;;;;;;;6.23;100.00;99261.88;4992760;28;19918;-82
2024/03/15 17:23:55;;;;;;;;;;;;;;;6.14;100.00;99255.13;4975203;28;19968;-89
2024/03/15 17:26:21;;;;;;;;;;;;;;;6.16;100.00;99261.22;4992726;28;19929;-84
2024/03/15 17:28:48;;;;;;;;;;;;;;;6.18;100.00;99259.41;4992676;28;19922;-88
2024/03/15 17:31:13;;;;;;;;;;;;;;;6.20;100.00;99264.59;4974001;28;19918;-85
2024/03/15 17:33:38;;;;;;;;;;;;;;;6.21;100.00;99258.41;4992589;28;20385;-82
2024/03/15 17:36:05;;;;;;;;;;;;;;;6.10;100.00;99261.44;4992780;28;20273;-82
2024/03/15 17:38:30;;;;;;;;;;;;;;;6.15;100.00;99259.50;4975542;28;19918;-92
2024/03/15 17:40:56;;;;;;;;;;;;;;;6.14;100.00;99261.28;4991863;28;19918;-85
2024/03/15 17:43:21;;;;;;;;;;;;;;;6.18;100.00;99260.25;4992818;28;19926;-84
2024/03/15 17:45:48;;;;;;;;;;;;;;;6.20;100.00;99262.81;4994022;28;19917;-80